sensor_id;sensor_type;location;lat;lon;timestamp;P1;durP1;ratioP1;P2;durP2;ratioP2
42886;SDS011;29032;56.028;92.904;2023-03-23T00:04:38;9.57;;;3.83;;
42886;SDS011;29032;56.028;92.904;2023-03-23T00:09:40;10.43;;;4.37;;
42886;SDS011;29032;56.028;92.904;2023-03-23T00:15:04;10.07;;;4.90;;
42886;SDS011;29032;56.028;92.904;2023-03-23T00:25:11;19.57;;;6.00;;
42886;SDS011;29032;56.028;92.904;2023-03-23T00:30:15;14.77;;;7.43;;
42886;SDS011;29032;56.028;92.904;2023-03-23T00:57:44;11.30;;;4.93;;
42886;SDS011;29032;56.028;92.904;2023-03-23T01:02:47;11.30;;;4.07;;
42886;SDS011;29032;56.028;92.904;2023-03-23T01:07:51;11.27;;;5.67;;
42886;SDS011;29032;56.028;92.904;2023-03-23T01:12:54;10.90;;;4.40;;
42886;SDS011;29032;56.028;92.904;2023-03-23T01:17:57;9.43;;;4.90;;
42886;SDS011;29032;56.028;92.904;2023-03-23T01:23:19;10.67;;;5.43;;
42886;SDS011;29032;56.028;92.904;2023-03-23T01:28:22;12.80;;;4.60;;
42886;SDS011;29032;56.028;92.904;2023-03-23T01:33:24;10.33;;;4.70;;
42886;SDS011;29032;56.028;92.904;2023-03-23T01:38:48;10.03;;;4.37;;
42886;SDS011;29032;56.028;92.904;2023-03-23T01:43:55;10.87;;;3.80;;
42886;SDS011;29032;56.028;92.904;2023-03-23T01:49:00;9.07;;;3.83;;
42886;SDS011;29032;56.028;92.904;2023-03-23T01:54:07;8.68;;;3.88;;
42886;SDS011;29032;56.028;92.904;2023-03-23T01:59:12;8.97;;;3.43;;
42886;SDS011;29032;56.028;92.904;2023-03-23T02:04:19;6.13;;;3.75;;
42886;SDS011;29032;56.028;92.904;2023-03-23T02:09:24;8.03;;;2.80;;
42886;SDS011;29032;56.028;92.904;2023-03-23T02:14:46;10.70;;;3.77;;
42886;SDS011;29032;56.028;92.904;2023-03-23T02:20:13;8.90;;;3.53;;
42886;SDS011;29032;56.028;92.904;2023-03-23T02:25:35;9.68;;;3.88;;
42886;SDS011;29032;56.028;92.904;2023-03-23T02:31:06;8.50;;;4.43;;
42886;SDS011;29032;56.028;92.904;2023-03-23T02:36:25;8.00;;;3.80;;
42886;SDS011;29032;56.028;92.904;2023-03-23T02:41:53;8.63;;;3.53;;
42886;SDS011;29032;56.028;92.904;2023-03-23T02:52:06;9.43;;;4.00;;
42886;SDS011;29032;56.028;92.904;2023-03-23T02:57:30;13.38;;;4.60;;
42886;SDS011;29032;56.028;92.904;2023-03-23T03:02:53;9.83;;;4.87;;
42886;SDS011;29032;56.028;92.904;2023-03-23T03:08:00;9.10;;;4.70;;
42886;SDS011;29032;56.028;92.904;2023-03-23T03:13:12;14.53;;;5.57;;
42886;SDS011;29032;56.028;92.904;2023-03-23T03:18:24;10.17;;;4.20;;
42886;SDS011;29032;56.028;92.904;2023-03-23T03:23:51;13.57;;;4.87;;
42886;SDS011;29032;56.028;92.904;2023-03-23T03:28:56;18.10;;;5.20;;
42886;SDS011;29032;56.028;92.904;2023-03-23T03:33:59;18.50;;;5.60;;
42886;SDS011;29032;56.028;92.904;2023-03-23T03:39:07;16.77;;;5.37;;
42886;SDS011;29032;56.028;92.904;2023-03-23T03:44:11;12.93;;;5.40;;
42886;SDS011;29032;56.028;92.904;2023-03-23T03:49:32;10.93;;;4.90;;
42886;SDS011;29032;56.028;92.904;2023-03-23T03:54:55;12.10;;;5.30;;
42886;SDS011;29032;56.028;92.904;2023-03-23T03:59:58;14.10;;;5.77;;
42886;SDS011;29032;56.028;92.904;2023-03-23T04:05:19;14.27;;;5.50;;
42886;SDS011;29032;56.028;92.904;2023-03-23T04:10:25;13.27;;;5.10;;
42886;SDS011;29032;56.028;92.904;2023-03-23T04:15:30;21.05;;;6.15;;
42886;SDS011;29032;56.028;92.904;2023-03-23T04:20:33;13.10;;;4.93;;
42886;SDS011;29032;56.028;92.904;2023-03-23T04:25:38;19.33;;;6.70;;
42886;SDS011;29032;56.028;92.904;2023-03-23T04:30:40;13.33;;;6.17;;
42886;SDS011;29032;56.028;92.904;2023-03-23T04:35:43;14.27;;;6.20;;
42886;SDS011;29032;56.028;92.904;2023-03-23T04:41:06;16.77;;;6.87;;
42886;SDS011;29032;56.028;92.904;2023-03-23T04:46:18;13.30;;;5.53;;
42886;SDS011;29032;56.028;92.904;2023-03-23T04:51:21;21.47;;;7.43;;
42886;SDS011;29032;56.028;92.904;2023-03-23T04:56:28;10.73;;;6.07;;
42886;SDS011;29032;56.028;92.904;2023-03-23T05:01:33;10.48;;;4.38;;
42886;SDS011;29032;56.028;92.904;2023-03-23T05:06:54;13.03;;;5.70;;
42886;SDS011;29032;56.028;92.904;2023-03-23T05:12:06;11.65;;;5.45;;
42886;SDS011;29032;56.028;92.904;2023-03-23T05:17:21;14.33;;;5.20;;
42886;SDS011;29032;56.028;92.904;2023-03-23T05:22:26;11.80;;;5.00;;
42886;SDS011;29032;56.028;92.904;2023-03-23T05:27:30;13.40;;;4.70;;
42886;SDS011;29032;56.028;92.904;2023-03-23T05:32:52;7.10;;;4.40;;
42886;SDS011;29032;56.028;92.904;2023-03-23T05:38:10;9.67;;;4.53;;
42886;SDS011;29032;56.028;92.904;2023-03-23T05:43:14;12.80;;;4.30;;
42886;SDS011;29032;56.028;92.904;2023-03-23T05:48:26;8.73;;;5.03;;
42886;SDS011;29032;56.028;92.904;2023-03-23T05:53:28;10.17;;;4.13;;
42886;SDS011;29032;56.028;92.904;2023-03-23T05:58:32;11.80;;;4.00;;
42886;SDS011;29032;56.028;92.904;2023-03-23T06:03:53;8.83;;;4.37;;
42886;SDS011;29032;56.028;92.904;2023-03-23T06:09:00;6.37;;;3.50;;
42886;SDS011;29032;56.028;92.904;2023-03-23T06:14:24;9.13;;;4.00;;
42886;SDS011;29032;56.028;92.904;2023-03-23T06:19:26;5.57;;;3.40;;
42886;SDS011;29032;56.028;92.904;2023-03-23T06:24:36;7.07;;;4.23;;
42886;SDS011;29032;56.028;92.904;2023-03-23T06:29:40;5.47;;;3.40;;
42886;SDS011;29032;56.028;92.904;2023-03-23T06:34:43;6.93;;;3.57;;
42886;SDS011;29032;56.028;92.904;2023-03-23T06:40:05;9.47;;;3.77;;
42886;SDS011;29032;56.028;92.904;2023-03-23T06:45:22;6.80;;;4.13;;
42886;SDS011;29032;56.028;92.904;2023-03-23T06:50:32;9.00;;;3.23;;
42886;SDS011;29032;56.028;92.904;2023-03-23T06:55:35;10.53;;;4.20;;
42886;SDS011;29032;56.028;92.904;2023-03-23T07:00:40;8.83;;;3.33;;
42886;SDS011;29032;56.028;92.904;2023-03-23T07:05:46;7.07;;;3.78;;
42886;SDS011;29032;56.028;92.904;2023-03-23T07:10:50;7.63;;;3.23;;
42886;SDS011;29032;56.028;92.904;2023-03-23T07:15:55;4.90;;;2.63;;
42886;SDS011;29032;56.028;92.904;2023-03-23T07:20:57;3.83;;;2.50;;
42886;SDS011;29032;56.028;92.904;2023-03-23T07:26:19;5.53;;;2.83;;
42886;SDS011;29032;56.028;92.904;2023-03-23T07:31:28;7.47;;;2.83;;
42886;SDS011;29032;56.028;92.904;2023-03-23T07:36:49;6.70;;;3.27;;
42886;SDS011;29032;56.028;92.904;2023-03-23T07:41:52;6.87;;;3.03;;
42886;SDS011;29032;56.028;92.904;2023-03-23T07:47:15;6.50;;;3.00;;
42886;SDS011;29032;56.028;92.904;2023-03-23T07:52:18;7.83;;;3.00;;
42886;SDS011;29032;56.028;92.904;2023-03-23T07:57:40;5.20;;;3.27;;
42886;SDS011;29032;56.028;92.904;2023-03-23T08:03:04;4.93;;;2.43;;
42886;SDS011;29032;56.028;92.904;2023-03-23T08:08:30;5.20;;;3.17;;
42886;SDS011;29032;56.028;92.904;2023-03-23T08:13:51;8.40;;;2.70;;
42886;SDS011;29032;56.028;92.904;2023-03-23T08:19:20;6.63;;;2.77;;
42886;SDS011;29032;56.028;92.904;2023-03-23T08:24:37;6.60;;;3.27;;
42886;SDS011;29032;56.028;92.904;2023-03-23T08:30:09;6.00;;;3.00;;
42886;SDS011;29032;56.028;92.904;2023-03-23T08:35:33;3.13;;;2.37;;
42886;SDS011;29032;56.028;92.904;2023-03-23T08:40:56;9.83;;;3.00;;
42886;SDS011;29032;56.028;92.904;2023-03-23T08:46:26;7.50;;;2.90;;
42886;SDS011;29032;56.028;92.904;2023-03-23T08:51:46;7.57;;;2.90;;
42886;SDS011;29032;56.028;92.904;2023-03-23T08:57:08;3.90;;;2.50;;
42886;SDS011;29032;56.028;92.904;2023-03-23T09:02:29;5.83;;;2.77;;
42886;SDS011;29032;56.028;92.904;2023-03-23T09:07:50;4.90;;;3.00;;
42886;SDS011;29032;56.028;92.904;2023-03-23T09:12:53;5.17;;;2.83;;
42886;SDS011;29032;56.028;92.904;2023-03-23T09:18:15;6.47;;;3.27;;
42886;SDS011;29032;56.028;92.904;2023-03-23T09:23:19;10.50;;;4.33;;
42886;SDS011;29032;56.028;92.904;2023-03-23T09:28:22;6.80;;;3.07;;
42886;SDS011;29032;56.028;92.904;2023-03-23T09:33:24;5.17;;;2.70;;
42886;SDS011;29032;56.028;92.904;2023-03-23T09:38:28;5.73;;;2.40;;
42886;SDS011;29032;56.028;92.904;2023-03-23T09:43:38;5.27;;;2.47;;
42886;SDS011;29032;56.028;92.904;2023-03-23T09:49:10;5.80;;;2.30;;
42886;SDS011;29032;56.028;92.904;2023-03-23T09:54:36;5.27;;;2.77;;
42886;SDS011;29032;56.028;92.904;2023-03-23T09:59:42;9.17;;;3.03;;
42886;SDS011;29032;56.028;92.904;2023-03-23T10:04:52;5.83;;;2.90;;
42886;SDS011;29032;56.028;92.904;2023-03-23T10:09:59;4.93;;;2.37;;
42886;SDS011;29032;56.028;92.904;2023-03-23T10:15:13;3.33;;;2.07;;
42886;SDS011;29032;56.028;92.904;2023-03-23T10:20:40;5.07;;;2.60;;
42886;SDS011;29032;56.028;92.904;2023-03-23T10:25:48;7.47;;;2.53;;
42886;SDS011;29032;56.028;92.904;2023-03-23T10:30:53;7.13;;;2.67;;
42886;SDS011;29032;56.028;92.904;2023-03-23T10:36:18;3.63;;;2.23;;
42886;SDS011;29032;56.028;92.904;2023-03-23T10:41:44;5.60;;;2.30;;
42886;SDS011;29032;56.028;92.904;2023-03-23T10:47:05;3.27;;;2.30;;
42886;SDS011;29032;56.028;92.904;2023-03-23T10:52:30;5.63;;;2.17;;
42886;SDS011;29032;56.028;92.904;2023-03-23T10:58:03;3.10;;;1.80;;
42886;SDS011;29032;56.028;92.904;2023-03-23T11:03:07;5.50;;;2.23;;
42886;SDS011;29032;56.028;92.904;2023-03-23T11:08:26;5.43;;;3.03;;
42886;SDS011;29032;56.028;92.904;2023-03-23T11:13:31;4.90;;;2.77;;
42886;SDS011;29032;56.028;92.904;2023-03-23T11:18:35;8.23;;;4.07;;
42886;SDS011;29032;56.028;92.904;2023-03-23T11:23:39;6.00;;;3.47;;
42886;SDS011;29032;56.028;92.904;2023-03-23T11:28:46;7.10;;;3.63;;
42886;SDS011;29032;56.028;92.904;2023-03-23T11:34:13;7.53;;;3.83;;
42886;SDS011;29032;56.028;92.904;2023-03-23T11:39:33;10.67;;;4.03;;
42886;SDS011;29032;56.028;92.904;2023-03-23T11:56:29;9.00;;;5.43;;
42886;SDS011;29032;56.028;92.904;2023-03-23T12:01:48;10.13;;;4.00;;
42886;SDS011;29032;56.028;92.904;2023-03-23T12:07:20;7.70;;;4.20;;
42886;SDS011;29032;56.028;92.904;2023-03-23T12:12:35;11.10;;;4.87;;
42886;SDS011;29032;56.028;92.904;2023-03-23T12:17:44;10.47;;;4.07;;
42886;SDS011;29032;56.028;92.904;2023-03-23T12:23:18;8.23;;;3.80;;
42886;SDS011;29032;56.028;92.904;2023-03-23T12:28:49;16.20;;;4.47;;
42886;SDS011;29032;56.028;92.904;2023-03-23T12:34:16;10.70;;;5.00;;
42886;SDS011;29032;56.028;92.904;2023-03-23T12:39:40;7.67;;;4.27;;
42886;SDS011;29032;56.028;92.904;2023-03-23T12:45:16;9.17;;;4.07;;
42886;SDS011;29032;56.028;92.904;2023-03-23T12:50:43;9.27;;;4.83;;
42886;SDS011;29032;56.028;92.904;2023-03-23T12:56:10;7.80;;;3.77;;
42886;SDS011;29032;56.028;92.904;2023-03-23T13:12:57;9.70;;;3.87;;
42886;SDS011;29032;56.028;92.904;2023-03-23T13:18:04;17.43;;;4.10;;
42886;SDS011;29032;56.028;92.904;2023-03-23T13:23:13;7.73;;;3.30;;
42886;SDS011;29032;56.028;92.904;2023-03-23T13:28:20;9.50;;;3.97;;
42886;SDS011;29032;56.028;92.904;2023-03-23T13:33:24;10.90;;;3.90;;
42886;SDS011;29032;56.028;92.904;2023-03-23T13:38:47;9.07;;;4.20;;
42886;SDS011;29032;56.028;92.904;2023-03-23T13:43:53;6.67;;;3.70;;
42886;SDS011;29032;56.028;92.904;2023-03-23T13:49:18;13.07;;;4.43;;
42886;SDS011;29032;56.028;92.904;2023-03-23T13:54:24;8.13;;;3.63;;
42886;SDS011;29032;56.028;92.904;2023-03-23T13:59:34;8.30;;;3.40;;
42886;SDS011;29032;56.028;92.904;2023-03-23T14:05:11;8.33;;;3.63;;
42886;SDS011;29032;56.028;92.904;2023-03-23T14:10:32;8.23;;;4.27;;
42886;SDS011;29032;56.028;92.904;2023-03-23T14:16:00;8.30;;;4.17;;
42886;SDS011;29032;56.028;92.904;2023-03-23T14:21:30;6.38;;;3.65;;
42886;SDS011;29032;56.028;92.904;2023-03-23T14:26:34;12.37;;;4.83;;
42886;SDS011;29032;56.028;92.904;2023-03-23T14:31:58;7.30;;;4.07;;
42886;SDS011;29032;56.028;92.904;2023-03-23T14:37:19;12.03;;;5.57;;
42886;SDS011;29032;56.028;92.904;2023-03-23T14:42:25;9.47;;;4.30;;
42886;SDS011;29032;56.028;92.904;2023-03-23T14:47:51;9.67;;;4.43;;
42886;SDS011;29032;56.028;92.904;2023-03-23T14:53:15;14.83;;;5.77;;
42886;SDS011;29032;56.028;92.904;2023-03-23T14:58:21;11.40;;;6.05;;
42886;SDS011;29032;56.028;92.904;2023-03-23T15:03:27;9.73;;;5.10;;
42886;SDS011;29032;56.028;92.904;2023-03-23T15:08:34;14.87;;;5.47;;
42886;SDS011;29032;56.028;92.904;2023-03-23T15:13:56;15.00;;;6.03;;
42886;SDS011;29032;56.028;92.904;2023-03-23T15:19:21;17.23;;;5.83;;
42886;SDS011;29032;56.028;92.904;2023-03-23T15:24:27;14.13;;;5.97;;
42886;SDS011;29032;56.028;92.904;2023-03-23T15:29:52;12.57;;;5.20;;
42886;SDS011;29032;56.028;92.904;2023-03-23T15:34:57;21.60;;;6.73;;
42886;SDS011;29032;56.028;92.904;2023-03-23T15:40:25;15.90;;;7.53;;
42886;SDS011;29032;56.028;92.904;2023-03-23T15:45:28;17.10;;;7.13;;
42886;SDS011;29032;56.028;92.904;2023-03-23T15:50:51;17.60;;;7.10;;
42886;SDS011;29032;56.028;92.904;2023-03-23T15:56:13;23.07;;;9.07;;
42886;SDS011;29032;56.028;92.904;2023-03-23T16:01:16;17.80;;;7.97;;
42886;SDS011;29032;56.028;92.904;2023-03-23T16:06:41;22.90;;;7.67;;
42886;SDS011;29032;56.028;92.904;2023-03-23T16:12:03;21.97;;;8.30;;
42886;SDS011;29032;56.028;92.904;2023-03-23T16:17:05;17.60;;;8.20;;
42886;SDS011;29032;56.028;92.904;2023-03-23T16:22:09;19.70;;;7.80;;
42886;SDS011;29032;56.028;92.904;2023-03-23T16:27:11;18.90;;;8.70;;
42886;SDS011;29032;56.028;92.904;2023-03-23T16:32:33;20.70;;;9.00;;
42886;SDS011;29032;56.028;92.904;2023-03-23T16:37:36;22.40;;;10.57;;
42886;SDS011;29032;56.028;92.904;2023-03-23T16:42:58;17.53;;;8.97;;
42886;SDS011;29032;56.028;92.904;2023-03-23T16:48:00;26.20;;;8.70;;
42886;SDS011;29032;56.028;92.904;2023-03-23T16:53:04;25.73;;;9.30;;
42886;SDS011;29032;56.028;92.904;2023-03-23T16:58:07;19.20;;;9.50;;
42886;SDS011;29032;56.028;92.904;2023-03-23T17:03:10;29.60;;;9.83;;
42886;SDS011;29032;56.028;92.904;2023-03-23T17:08:33;27.33;;;10.70;;
42886;SDS011;29032;56.028;92.904;2023-03-23T17:13:54;30.27;;;12.03;;
42886;SDS011;29032;56.028;92.904;2023-03-23T17:18:57;34.80;;;14.73;;
42886;SDS011;29032;56.028;92.904;2023-03-23T17:24:20;67.03;;;30.00;;
42886;SDS011;29032;56.028;92.904;2023-03-23T17:29:22;72.67;;;31.43;;
42886;SDS011;29032;56.028;92.904;2023-03-23T17:34:24;44.63;;;22.20;;
42886;SDS011;29032;56.028;92.904;2023-03-23T17:39:47;30.93;;;16.27;;
42886;SDS011;29032;56.028;92.904;2023-03-23T17:44:51;58.97;;;28.50;;
42886;SDS011;29032;56.028;92.904;2023-03-23T17:50:13;60.20;;;27.50;;
42886;SDS011;29032;56.028;92.904;2023-03-23T17:55:16;56.03;;;26.07;;
42886;SDS011;29032;56.028;92.904;2023-03-23T18:00:23;56.97;;;26.30;;
42886;SDS011;29032;56.028;92.904;2023-03-23T18:05:26;49.73;;;24.70;;
42886;SDS011;29032;56.028;92.904;2023-03-23T18:10:49;51.87;;;24.87;;
42886;SDS011;29032;56.028;92.904;2023-03-23T18:16:10;47.87;;;22.40;;
42886;SDS011;29032;56.028;92.904;2023-03-23T18:21:13;53.67;;;25.13;;
42886;SDS011;29032;56.028;92.904;2023-03-23T18:26:25;52.43;;;25.50;;
42886;SDS011;29032;56.028;92.904;2023-03-23T18:31:27;32.17;;;14.63;;
42886;SDS011;29032;56.028;92.904;2023-03-23T18:36:30;31.47;;;15.60;;
42886;SDS011;29032;56.028;92.904;2023-03-23T18:41:34;24.33;;;11.90;;
42886;SDS011;29032;56.028;92.904;2023-03-23T18:46:36;28.77;;;14.03;;
42886;SDS011;29032;56.028;92.904;2023-03-23T18:51:38;28.83;;;13.90;;
42886;SDS011;29032;56.028;92.904;2023-03-23T18:56:41;19.03;;;10.83;;
42886;SDS011;29032;56.028;92.904;2023-03-23T19:02:03;26.73;;;12.47;;
42886;SDS011;29032;56.028;92.904;2023-03-23T19:07:06;26.97;;;12.93;;
42886;SDS011;29032;56.028;92.904;2023-03-23T19:12:09;33.53;;;14.60;;
42886;SDS011;29032;56.028;92.904;2023-03-23T19:17:12;29.47;;;13.97;;
42886;SDS011;29032;56.028;92.904;2023-03-23T19:22:34;31.97;;;15.23;;
42886;SDS011;29032;56.028;92.904;2023-03-23T19:27:38;27.10;;;14.80;;
42886;SDS011;29032;56.028;92.904;2023-03-23T19:32:59;28.73;;;14.07;;
42886;SDS011;29032;56.028;92.904;2023-03-23T19:38:01;28.70;;;14.87;;
42886;SDS011;29032;56.028;92.904;2023-03-23T19:43:05;27.60;;;14.47;;
42886;SDS011;29032;56.028;92.904;2023-03-23T19:48:26;30.60;;;13.77;;
42886;SDS011;29032;56.028;92.904;2023-03-23T19:53:47;28.03;;;15.03;;
42886;SDS011;29032;56.028;92.904;2023-03-23T19:58:51;26.40;;;14.23;;
42886;SDS011;29032;56.028;92.904;2023-03-23T20:04:13;25.10;;;12.83;;
42886;SDS011;29032;56.028;92.904;2023-03-23T20:09:34;25.57;;;13.07;;
42886;SDS011;29032;56.028;92.904;2023-03-23T20:14:57;25.93;;;11.93;;
42886;SDS011;29032;56.028;92.904;2023-03-23T20:20:00;25.03;;;11.73;;
42886;SDS011;29032;56.028;92.904;2023-03-23T20:25:03;26.30;;;11.53;;
42886;SDS011;29032;56.028;92.904;2023-03-23T20:30:26;23.53;;;11.77;;
42886;SDS011;29032;56.028;92.904;2023-03-23T20:35:47;23.43;;;10.50;;
42886;SDS011;29032;56.028;92.904;2023-03-23T20:40:49;24.43;;;10.53;;
42886;SDS011;29032;56.028;92.904;2023-03-23T20:46:12;27.13;;;11.73;;
42886;SDS011;29032;56.028;92.904;2023-03-23T20:51:15;23.97;;;10.67;;
42886;SDS011;29032;56.028;92.904;2023-03-23T20:56:17;19.33;;;10.23;;
42886;SDS011;29032;56.028;92.904;2023-03-23T21:01:40;11.87;;;5.87;;
42886;SDS011;29032;56.028;92.904;2023-03-23T21:06:43;8.13;;;4.33;;
42886;SDS011;29032;56.028;92.904;2023-03-23T21:12:06;5.63;;;3.73;;
42886;SDS011;29032;56.028;92.904;2023-03-23T21:17:11;8.30;;;3.47;;
42886;SDS011;29032;56.028;92.904;2023-03-23T21:22:32;7.43;;;3.90;;
42886;SDS011;29032;56.028;92.904;2023-03-23T21:27:53;6.53;;;3.60;;
42886;SDS011;29032;56.028;92.904;2023-03-23T21:33:18;7.73;;;3.90;;
42886;SDS011;29032;56.028;92.904;2023-03-23T21:38:39;10.40;;;5.47;;
42886;SDS011;29032;56.028;92.904;2023-03-23T21:44:00;11.73;;;6.70;;
42886;SDS011;29032;56.028;92.904;2023-03-23T21:49:23;10.07;;;4.60;;
42886;SDS011;29032;56.028;92.904;2023-03-23T21:54:26;11.93;;;4.43;;
42886;SDS011;29032;56.028;92.904;2023-03-23T21:59:47;6.60;;;3.83;;
42886;SDS011;29032;56.028;92.904;2023-03-23T22:05:10;11.17;;;5.40;;
42886;SDS011;29032;56.028;92.904;2023-03-23T22:10:12;9.23;;;5.13;;
42886;SDS011;29032;56.028;92.904;2023-03-23T22:15:34;8.03;;;4.20;;
42886;SDS011;29032;56.028;92.904;2023-03-23T22:20:38;10.17;;;5.40;;
42886;SDS011;29032;56.028;92.904;2023-03-23T22:26:00;8.17;;;4.60;;
42886;SDS011;29032;56.028;92.904;2023-03-23T22:31:04;8.10;;;3.90;;
42886;SDS011;29032;56.028;92.904;2023-03-23T22:36:29;10.87;;;4.37;;
42886;SDS011;29032;56.028;92.904;2023-03-23T22:41:33;7.30;;;3.77;;
42886;SDS011;29032;56.028;92.904;2023-03-23T22:46:55;6.50;;;3.53;;
42886;SDS011;29032;56.028;92.904;2023-03-23T22:51:59;7.67;;;4.47;;
42886;SDS011;29032;56.028;92.904;2023-03-23T22:57:02;7.47;;;3.97;;
42886;SDS011;29032;56.028;92.904;2023-03-23T23:02:05;7.60;;;4.10;;
42886;SDS011;29032;56.028;92.904;2023-03-23T23:07:08;12.57;;;5.10;;
42886;SDS011;29032;56.028;92.904;2023-03-23T23:12:11;20.70;;;8.10;;
42886;SDS011;29032;56.028;92.904;2023-03-23T23:17:33;17.20;;;7.53;;
42886;SDS011;29032;56.028;92.904;2023-03-23T23:22:56;12.20;;;4.60;;
42886;SDS011;29032;56.028;92.904;2023-03-23T23:28:18;5.67;;;3.17;;
42886;SDS011;29032;56.028;92.904;2023-03-23T23:33:40;7.03;;;2.70;;
42886;SDS011;29032;56.028;92.904;2023-03-23T23:39:03;6.70;;;2.77;;
42886;SDS011;29032;56.028;92.904;2023-03-23T23:44:05;6.50;;;3.83;;
42886;SDS011;29032;56.028;92.904;2023-03-23T23:49:27;4.27;;;2.80;;
